createdAt,value
2023-05-09T00:00:37.475Z,68.07
2023-05-09T00:03:14.416Z,68.14
2023-05-09T00:05:42.454Z,68.31
2023-05-09T00:08:10.088Z,68.41
2023-05-09T00:10:37.671Z,68.63
2023-05-09T00:13:06.232Z,68.69
2023-05-09T00:15:34.198Z,68.58
2023-05-09T00:18:01.941Z,68.56
2023-05-09T00:20:29.612Z,68.41
2023-05-09T00:22:57.255Z,68.41
2023-05-09T00:25:25.278Z,68.46
2023-05-09T00:27:52.880Z,68.47
2023-05-09T00:30:20.476Z,68.55
2023-05-09T00:32:48.193Z,68.67
2023-05-09T00:35:16.434Z,68.76
2023-05-09T00:37:44.277Z,68.94
2023-05-09T00:40:12.447Z,69.13
2023-05-09T00:42:40.115Z,69.26
2023-05-09T00:45:08.793Z,69.18
2023-05-09T00:47:36.482Z,69.33
2023-05-09T00:50:05.261Z,69.37
2023-05-09T00:52:33.409Z,69.49
2023-05-09T00:55:01.026Z,69.56
2023-05-09T00:57:28.680Z,69.46
2023-05-09T00:59:56.242Z,69.37
2023-05-09T01:02:24.175Z,69.45
2023-05-09T01:04:52.052Z,69.46
2023-05-09T01:07:39.458Z,69.36
2023-05-09T01:10:16.321Z,69.17
2023-05-09T01:12:52.584Z,69.15
2023-05-09T01:15:26.811Z,69.28
2023-05-09T01:17:58.871Z,69.41
2023-05-09T01:20:30.563Z,69.56
2023-05-09T01:23:30.573Z,69.76
2023-05-09T01:26:10.214Z,69.89
2023-05-09T01:28:56.960Z,70.05
2023-05-09T01:31:24.817Z,70.06
2023-05-09T01:33:54.899Z,70.06
2023-05-09T01:36:22.536Z,69.91
2023-05-09T01:38:50.513Z,70.21
2023-05-09T01:41:18.156Z,70.18
2023-05-09T01:43:46.285Z,70.44
2023-05-09T01:46:14.329Z,70.63
2023-05-09T01:48:42.316Z,70.55
2023-05-09T01:51:10.081Z,70.49
2023-05-09T01:53:37.678Z,70.73
2023-05-09T01:56:05.696Z,70.89
2023-05-09T01:58:33.784Z,71.20
2023-05-09T02:01:01.462Z,71.16
2023-05-09T02:03:30.054Z,71.51
2023-05-09T02:05:57.667Z,71.27
2023-05-09T02:08:25.353Z,71.54
2023-05-09T02:10:53.254Z,71.53
2023-05-09T02:13:21.088Z,71.71
2023-05-09T02:15:48.835Z,71.71
2023-05-09T02:18:17.378Z,71.77
2023-05-09T02:20:45.012Z,71.55
2023-05-09T02:23:12.775Z,71.14
2023-05-09T02:25:40.728Z,71.20
2023-05-09T02:28:09.176Z,71.00
2023-05-09T02:30:43.324Z,70.79
2023-05-09T02:33:12.749Z,71.05
2023-05-09T02:35:42.433Z,71.17
2023-05-09T02:38:10.132Z,71.36
2023-05-09T02:40:37.730Z,71.43
2023-05-09T02:43:05.500Z,71.47
2023-05-09T02:45:33.142Z,71.26
2023-05-09T02:48:00.956Z,70.82
2023-05-09T02:50:28.721Z,71.18
2023-05-09T02:52:56.339Z,71.02
2023-05-09T02:55:24.084Z,70.92
2023-05-09T02:57:58.976Z,71.09
2023-05-09T03:00:33.258Z,71.23
2023-05-09T03:03:00.925Z,71.40
2023-05-09T03:05:28.735Z,71.34
2023-05-09T03:07:56.370Z,71.33
2023-05-09T03:10:24.045Z,71.61
2023-05-09T03:12:51.766Z,71.62
2023-05-09T03:15:20.471Z,71.71
2023-05-09T03:17:48.256Z,71.85
2023-05-09T03:20:16.091Z,71.97
2023-05-09T03:22:43.788Z,71.97
2023-05-09T03:25:11.420Z,72.06
2023-05-09T03:27:39.040Z,72.37
2023-05-09T03:30:07.751Z,72.63
2023-05-09T03:32:35.424Z,73.04
2023-05-09T03:35:03.409Z,73.48
2023-05-09T03:37:31.179Z,73.86
2023-05-09T03:39:58.780Z,74.41
2023-05-09T03:42:26.406Z,74.36
2023-05-09T03:44:55.067Z,74.68
2023-05-09T03:47:22.683Z,74.77
2023-05-09T03:49:50.746Z,75.05
2023-05-09T03:52:18.415Z,75.10
2023-05-09T03:54:46.159Z,75.11
2023-05-09T03:57:13.799Z,75.16
2023-05-09T03:59:41.495Z,75.38
2023-05-09T04:02:09.164Z,75.78
2023-05-09T04:04:36.941Z,75.97
2023-05-09T04:07:04.528Z,76.43
2023-05-09T04:09:32.211Z,76.49
2023-05-09T04:11:59.856Z,76.51
2023-05-09T04:14:27.451Z,76.61
2023-05-09T04:16:55.090Z,76.58
2023-05-09T04:19:22.991Z,76.79
2023-05-09T04:21:50.825Z,76.99
2023-05-09T04:24:18.473Z,77.25
2023-05-09T04:26:46.277Z,77.47
2023-05-09T04:29:13.943Z,77.88
2023-05-09T04:31:41.664Z,77.76
2023-05-09T04:34:09.478Z,78.39
2023-05-09T04:36:37.072Z,77.94
2023-05-09T04:39:05.400Z,78.44
2023-05-09T04:41:33.035Z,78.59
2023-05-09T04:44:00.922Z,78.56
2023-05-09T04:46:28.629Z,78.57
2023-05-09T04:48:56.355Z,78.80
2023-05-09T04:51:24.138Z,78.44
2023-05-09T04:53:52.292Z,78.18
2023-05-09T04:56:19.972Z,78.07
2023-05-09T04:58:47.652Z,77.74
2023-05-09T05:01:16.811Z,77.56
2023-05-09T05:03:45.996Z,77.57
2023-05-09T05:06:13.699Z,77.33
2023-05-09T05:08:41.329Z,77.16
2023-05-09T05:11:08.952Z,76.82
2023-05-09T05:13:36.596Z,76.83
2023-05-09T05:16:04.807Z,76.44
2023-05-09T05:18:32.628Z,76.20
2023-05-09T05:21:00.261Z,76.23
2023-05-09T05:23:27.879Z,75.75
2023-05-09T05:25:55.591Z,75.81
2023-05-09T05:28:23.682Z,75.61
2023-05-09T05:30:51.342Z,75.54
2023-05-09T05:33:19.006Z,74.85
2023-05-09T05:35:46.706Z,74.50
2023-05-09T05:38:14.303Z,74.57
2023-05-09T05:40:41.998Z,74.23
2023-05-09T05:43:09.647Z,73.98
2023-05-09T05:45:37.835Z,73.40
2023-05-09T05:48:05.760Z,73.38
2023-05-09T05:50:33.554Z,73.01
2023-05-09T05:53:01.225Z,72.65
2023-05-09T05:55:28.979Z,72.18
2023-05-09T05:57:56.756Z,71.90
2023-05-09T06:00:24.529Z,71.48
2023-05-09T06:02:52.386Z,71.15
2023-05-09T06:05:20.445Z,71.02
2023-05-09T06:07:48.316Z,70.40
2023-05-09T06:10:17.132Z,69.29
2023-05-09T06:12:44.826Z,68.94
2023-05-09T06:15:12.766Z,68.58
2023-05-09T06:17:40.920Z,68.04
2023-05-09T06:20:08.775Z,67.22
2023-05-09T06:22:36.362Z,66.28
2023-05-09T06:25:04.388Z,65.98
2023-05-09T06:27:31.981Z,65.33
2023-05-09T06:30:00.270Z,64.76
2023-05-09T06:32:28.127Z,64.19
2023-05-09T06:34:56.059Z,63.98
2023-05-09T06:37:23.635Z,64.10
2023-05-09T06:39:51.393Z,63.81
2023-05-09T06:42:19.120Z,63.84
2023-05-09T06:44:46.851Z,63.90
2023-05-09T06:47:14.562Z,63.08
2023-05-09T06:49:42.879Z,62.25
2023-05-09T06:52:10.477Z,61.78
2023-05-09T06:54:39.120Z,61.99
2023-05-09T06:57:06.703Z,62.06
2023-05-09T06:59:34.356Z,61.48
2023-05-09T07:02:02.140Z,61.54
2023-05-09T07:04:29.938Z,60.73
2023-05-09T07:06:59.269Z,60.33
2023-05-09T07:09:28.824Z,60.18
2023-05-09T07:11:56.570Z,59.49
2023-05-09T07:14:24.180Z,59.39
2023-05-09T07:16:51.896Z,59.67
2023-05-09T07:19:19.651Z,59.75
2023-05-09T07:21:47.254Z,60.01
2023-05-09T07:24:14.913Z,58.83
2023-05-09T07:26:42.533Z,58.70
2023-05-09T07:29:10.166Z,58.11
2023-05-09T07:31:37.864Z,57.37
2023-05-09T07:34:05.506Z,57.05
2023-05-09T07:36:35.340Z,55.73
2023-05-09T07:39:04.886Z,55.77
2023-05-09T07:41:32.524Z,55.34
2023-05-09T07:44:00.143Z,54.74
2023-05-09T07:46:27.847Z,54.52
2023-05-09T07:48:55.767Z,54.08
2023-05-09T07:51:24.043Z,53.36
2023-05-09T07:53:51.657Z,52.22
2023-05-09T07:56:19.292Z,52.16
2023-05-09T07:58:46.943Z,52.07
2023-05-09T08:01:14.791Z,51.31
2023-05-09T08:03:42.536Z,51.27
2023-05-09T08:06:10.220Z,52.27
2023-05-09T08:08:38.967Z,52.72
2023-05-09T08:11:06.913Z,51.44
2023-05-09T08:13:34.519Z,51.10
2023-05-09T08:16:02.764Z,51.74
2023-05-09T08:18:30.466Z,51.39
2023-05-09T08:20:59.747Z,51.30
2023-05-09T08:23:28.169Z,50.86
2023-05-09T08:25:56.345Z,49.64
2023-05-09T08:28:24.432Z,50.17
2023-05-09T08:30:52.403Z,49.48
2023-05-09T08:33:20.182Z,48.62
2023-05-09T08:35:54.016Z,48.36
2023-05-09T08:38:21.691Z,47.50
2023-05-09T08:40:49.387Z,47.15
2023-05-09T08:43:19.837Z,47.09
2023-05-09T08:45:58.639Z,47.07
2023-05-09T08:48:27.951Z,46.91
2023-05-09T08:50:56.201Z,47.09
2023-05-09T08:53:23.924Z,47.32
2023-05-09T08:55:52.278Z,47.04
2023-05-09T08:58:22.772Z,47.62
2023-05-09T09:00:50.847Z,47.45
2023-05-09T09:03:19.368Z,47.03
2023-05-09T09:05:47.585Z,47.20
2023-05-09T09:08:15.448Z,46.58
2023-05-09T09:10:47.171Z,46.53
2023-05-09T09:13:15.452Z,47.46
2023-05-09T09:15:44.155Z,46.96
2023-05-09T09:18:13.005Z,45.48
2023-05-09T09:20:43.708Z,44.98
2023-05-09T09:23:11.453Z,44.52
2023-05-09T09:25:39.305Z,45.06
2023-05-09T09:28:07.113Z,43.76
2023-05-09T09:30:34.884Z,44.25
2023-05-09T09:33:02.552Z,44.92
2023-05-09T09:35:30.347Z,44.89
2023-05-09T09:38:00.139Z,45.01
2023-05-09T09:40:28.100Z,44.49
2023-05-09T09:42:56.038Z,44.45
2023-05-09T09:45:23.770Z,44.22
2023-05-09T09:47:51.408Z,43.78
2023-05-09T09:50:20.227Z,43.61
2023-05-09T09:52:57.838Z,43.54
2023-05-09T09:55:25.475Z,42.60
2023-05-09T09:57:53.183Z,42.78
2023-05-09T10:00:27.832Z,41.73
2023-05-09T10:02:59.197Z,41.60
2023-05-09T10:05:29.131Z,41.26
2023-05-09T10:08:01.564Z,40.49
2023-05-09T10:10:33.849Z,40.40
2023-05-09T10:13:07.474Z,38.83
2023-05-09T10:15:49.462Z,37.76
2023-05-09T10:18:23.128Z,38.20
2023-05-09T10:20:50.907Z,38.44
2023-05-09T10:23:18.672Z,37.38
2023-05-09T10:25:55.542Z,37.66
2023-05-09T10:28:25.294Z,36.79
2023-05-09T10:31:22.136Z,36.29
2023-05-09T10:33:50.377Z,37.00
2023-05-09T10:36:20.713Z,36.51
2023-05-09T10:38:49.188Z,36.75
2023-05-09T10:41:17.270Z,35.67
2023-05-09T10:43:45.864Z,35.38
2023-05-09T10:46:13.652Z,36.01
2023-05-09T10:48:42.195Z,35.95
2023-05-09T10:51:10.328Z,34.98
2023-05-09T10:53:50.905Z,35.56
2023-05-09T10:56:32.720Z,35.03
2023-05-09T10:59:00.477Z,35.82
2023-05-09T11:01:34.827Z,35.82
2023-05-09T11:04:08.916Z,35.48
2023-05-09T11:06:51.366Z,35.72
2023-05-09T11:09:29.439Z,35.74
2023-05-09T11:11:59.437Z,34.88
2023-05-09T11:14:40.808Z,33.48
2023-05-09T11:17:12.937Z,33.20
2023-05-09T11:19:46.513Z,33.78
2023-05-09T11:22:15.362Z,33.44
2023-05-09T11:24:50.196Z,32.39
2023-05-09T11:27:21.973Z,32.52
2023-05-09T11:29:59.843Z,32.97
2023-05-09T11:32:28.846Z,33.64
2023-05-09T11:35:17.855Z,34.36
2023-05-09T11:38:02.288Z,33.50
2023-05-09T11:40:30.229Z,33.76
2023-05-09T11:42:58.948Z,33.54
2023-05-09T11:45:30.885Z,32.75
2023-05-09T11:47:58.709Z,32.40
2023-05-09T11:50:26.543Z,33.16
2023-05-09T11:52:54.234Z,32.92
2023-05-09T11:55:22.945Z,31.78
2023-05-09T11:57:52.542Z,32.79
2023-05-09T12:00:24.429Z,31.78
2023-05-09T12:02:52.808Z,31.68
2023-05-09T12:05:21.506Z,31.02
2023-05-09T12:07:49.253Z,31.58
2023-05-09T12:10:19.914Z,32.07
2023-05-09T12:12:49.166Z,30.88
2023-05-09T12:15:17.678Z,30.32
2023-05-09T12:17:47.297Z,30.49
2023-05-09T12:20:15.958Z,29.78
2023-05-09T12:22:43.913Z,29.52
2023-05-09T12:25:12.085Z,28.52
2023-05-09T12:27:41.074Z,28.17
2023-05-09T12:30:10.597Z,28.33
2023-05-09T12:32:40.460Z,28.60
2023-05-09T12:35:09.639Z,29.31
2023-05-09T12:37:37.837Z,28.27
2023-05-09T12:40:12.612Z,27.97
2023-05-09T12:42:43.128Z,27.75
2023-05-09T12:45:11.707Z,27.13
2023-05-09T12:47:39.672Z,27.58
2023-05-09T12:50:08.268Z,27.03
2023-05-09T12:52:50.721Z,27.67
2023-05-09T12:55:26.501Z,26.83
2023-05-09T12:58:03.861Z,26.62
2023-05-09T13:00:47.031Z,27.01
2023-05-09T13:03:26.081Z,27.71
2023-05-09T13:05:57.516Z,27.38
2023-05-09T13:08:25.656Z,27.68
2023-05-09T13:11:00.734Z,27.38
2023-05-09T13:13:32.052Z,26.13
2023-05-09T13:15:59.794Z,25.84
2023-05-09T13:18:27.456Z,26.57
2023-05-09T13:20:55.124Z,26.37
2023-05-09T13:23:22.963Z,26.03
2023-05-09T13:25:51.721Z,25.72
2023-05-09T13:28:19.323Z,26.48
2023-05-09T13:30:47.166Z,26.83
2023-05-09T13:33:25.374Z,26.30
2023-05-09T13:35:54.304Z,26.32
2023-05-09T13:38:21.982Z,26.40
2023-05-09T13:40:49.759Z,25.59
2023-05-09T13:43:17.360Z,25.04
2023-05-09T13:45:45.056Z,26.33
2023-05-09T13:48:12.882Z,26.28
2023-05-09T13:50:40.685Z,25.43
2023-05-09T13:53:08.451Z,24.93
2023-05-09T13:55:36.066Z,25.63
2023-05-09T13:58:03.669Z,25.94
2023-05-09T14:00:31.393Z,26.58
2023-05-09T14:02:59.094Z,26.17
2023-05-09T14:05:26.919Z,25.76
2023-05-09T14:07:55.044Z,26.38
2023-05-09T14:10:24.166Z,26.17
2023-05-09T14:12:53.546Z,25.54
2023-05-09T14:15:21.303Z,25.44
2023-05-09T14:17:49.095Z,25.61
2023-05-09T14:20:16.969Z,25.11
2023-05-09T14:22:45.003Z,25.19
2023-05-09T14:25:12.741Z,25.49
2023-05-09T14:27:40.641Z,25.23
2023-05-09T14:30:09.254Z,25.04
2023-05-09T14:32:37.251Z,25.62
2023-05-09T14:35:05.466Z,25.86
2023-05-09T14:37:33.962Z,25.19
2023-05-09T14:40:05.545Z,24.40
2023-05-09T14:42:33.327Z,23.78
2023-05-09T14:45:00.996Z,24.51
2023-05-09T14:47:28.761Z,23.49
2023-05-09T14:49:56.768Z,22.64
2023-05-09T14:52:24.407Z,23.15
2023-05-09T14:54:52.038Z,23.31
2023-05-09T14:57:19.898Z,23.76
2023-05-09T14:59:47.491Z,23.66
2023-05-09T15:02:15.090Z,23.97
2023-05-09T15:04:43.868Z,23.64
2023-05-09T15:07:11.963Z,23.51
2023-05-09T15:09:39.617Z,22.67
2023-05-09T15:12:07.393Z,22.94
2023-05-09T15:14:35.120Z,22.88
2023-05-09T15:17:04.364Z,23.27
2023-05-09T15:19:33.948Z,23.54
2023-05-09T15:22:02.620Z,23.16
2023-05-09T15:24:30.796Z,23.03
2023-05-09T15:26:58.633Z,22.99
2023-05-09T15:29:26.793Z,22.79
2023-05-09T15:31:54.615Z,23.06
2023-05-09T15:34:22.978Z,23.33
2023-05-09T15:36:50.826Z,22.95
2023-05-09T15:39:18.464Z,22.98
2023-05-09T15:41:46.087Z,22.58
2023-05-09T15:44:14.751Z,22.81
2023-05-09T15:46:42.492Z,23.04
2023-05-09T15:49:10.197Z,22.88
2023-05-09T15:51:38.054Z,22.78
2023-05-09T15:54:05.644Z,23.18
2023-05-09T15:56:33.226Z,23.33
2023-05-09T15:59:01.180Z,23.72
2023-05-09T16:01:28.812Z,23.18
2023-05-09T16:03:56.851Z,23.10
2023-05-09T16:06:24.642Z,23.34
2023-05-09T16:08:52.479Z,23.27
2023-05-09T16:11:20.206Z,23.86
2023-05-09T16:13:47.923Z,23.91
2023-05-09T16:16:15.724Z,23.60
2023-05-09T16:18:43.569Z,23.77
2023-05-09T16:21:11.783Z,24.07
2023-05-09T16:23:39.602Z,23.81
2023-05-09T16:26:07.339Z,23.91
2023-05-09T16:28:35.033Z,23.85
2023-05-09T16:31:05.045Z,24.09
2023-05-09T16:33:32.829Z,23.94
2023-05-09T16:36:00.785Z,24.43
2023-05-09T16:38:28.420Z,24.45
2023-05-09T16:40:56.392Z,24.22
2023-05-09T16:43:24.262Z,24.55
2023-05-09T16:45:52.898Z,24.46
2023-05-09T16:48:20.654Z,24.81
2023-05-09T16:50:48.409Z,24.98
2023-05-09T16:53:17.590Z,25.10
2023-05-09T16:55:45.995Z,25.19
2023-05-09T16:58:13.754Z,25.41
2023-05-09T17:00:41.338Z,25.44
2023-05-09T17:03:09.108Z,25.41
2023-05-09T17:05:36.933Z,25.58
2023-05-09T17:08:05.273Z,25.77
2023-05-09T17:10:34.177Z,25.89
2023-05-09T17:13:07.689Z,26.21
2023-05-09T17:15:35.666Z,26.61
2023-05-09T17:18:03.704Z,27.21
2023-05-09T17:20:31.824Z,27.41
2023-05-09T17:22:59.472Z,27.37
2023-05-09T17:25:27.528Z,27.48
2023-05-09T17:27:55.142Z,27.89
2023-05-09T17:30:23.390Z,28.03
2023-05-09T17:32:51.410Z,28.21
2023-05-09T17:35:20.802Z,28.52
2023-05-09T17:37:48.716Z,28.53
2023-05-09T17:40:16.660Z,28.99
2023-05-09T17:42:44.442Z,29.28
2023-05-09T17:45:14.923Z,29.89
2023-05-09T17:47:42.558Z,30.56
2023-05-09T17:50:14.542Z,30.91
2023-05-09T17:52:44.025Z,31.32
2023-05-09T17:55:12.189Z,31.66
2023-05-09T17:57:40.786Z,32.16
2023-05-09T18:00:09.349Z,32.52
2023-05-09T18:02:37.178Z,32.65
2023-05-09T18:05:05.817Z,33.09
2023-05-09T18:07:33.903Z,33.34
2023-05-09T18:10:01.650Z,33.72
2023-05-09T18:12:31.148Z,33.88
2023-05-09T18:14:58.869Z,34.14
2023-05-09T18:17:26.473Z,34.70
2023-05-09T18:19:54.056Z,34.89
2023-05-09T18:22:22.313Z,35.36
2023-05-09T18:24:49.993Z,35.45
2023-05-09T18:27:17.624Z,35.88
2023-05-09T18:29:47.505Z,36.22
2023-05-09T18:32:15.481Z,36.40
2023-05-09T18:34:43.437Z,36.66
2023-05-09T18:37:11.104Z,36.77
2023-05-09T18:39:38.711Z,37.31
2023-05-09T18:42:06.579Z,37.69
2023-05-09T18:44:35.198Z,37.77
2023-05-09T18:47:02.897Z,38.08
2023-05-09T18:49:30.542Z,38.30
2023-05-09T18:52:00.199Z,38.61
2023-05-09T18:54:27.863Z,38.68
2023-05-09T18:56:55.441Z,38.98
2023-05-09T18:59:23.584Z,39.25
2023-05-09T19:01:51.214Z,39.45
2023-05-09T19:04:19.601Z,39.69
2023-05-09T19:06:47.604Z,39.97
2023-05-09T19:09:15.478Z,40.14
2023-05-09T19:11:43.409Z,40.28
2023-05-09T19:14:11.037Z,40.48
2023-05-09T19:16:38.679Z,40.69
2023-05-09T19:19:06.324Z,41.10
2023-05-09T19:21:35.724Z,41.12
2023-05-09T19:24:04.799Z,41.33
2023-05-09T19:26:32.515Z,41.61
2023-05-09T19:29:01.332Z,41.88
2023-05-09T19:31:31.382Z,41.96
2023-05-09T19:33:59.857Z,42.16
2023-05-09T19:36:27.527Z,42.70
2023-05-09T19:38:55.178Z,42.58
2023-05-09T19:41:22.798Z,42.78
2023-05-09T19:43:51.457Z,43.04
2023-05-09T19:46:19.426Z,43.17
2023-05-09T19:48:47.134Z,43.47
2023-05-09T19:51:15.527Z,43.65
2023-05-09T19:53:43.156Z,44.07
2023-05-09T19:56:11.673Z,43.83
2023-05-09T19:58:39.271Z,44.22
2023-05-09T20:01:07.361Z,44.43
2023-05-09T20:03:37.021Z,44.45
2023-05-09T20:06:05.036Z,44.70
2023-05-09T20:08:32.778Z,44.80
2023-05-09T20:11:00.400Z,45.26
2023-05-09T20:13:28.146Z,45.18
2023-05-09T20:15:57.134Z,45.24
2023-05-09T20:18:24.851Z,45.28
2023-05-09T20:20:53.952Z,45.46
2023-05-09T20:23:21.567Z,45.64
2023-05-09T20:25:49.273Z,45.70
2023-05-09T20:28:20.323Z,45.95
2023-05-09T20:30:48.680Z,46.25
2023-05-09T20:33:16.330Z,46.21
2023-05-09T20:35:43.995Z,46.49
2023-05-09T20:38:11.692Z,46.53
2023-05-09T20:40:40.349Z,46.67
2023-05-09T20:43:08.134Z,46.97
2023-05-09T20:45:37.497Z,47.17
2023-05-09T20:48:06.655Z,47.42
2023-05-09T20:50:34.400Z,47.17
2023-05-09T20:53:02.063Z,47.46
2023-05-09T20:55:29.726Z,47.14
2023-05-09T20:57:57.987Z,47.78
2023-05-09T21:00:25.659Z,47.61
2023-05-09T21:02:56.910Z,47.71
2023-05-09T21:05:26.179Z,47.74
2023-05-09T21:07:53.881Z,47.87
2023-05-09T21:10:21.492Z,47.86
2023-05-09T21:12:49.148Z,48.04
2023-05-09T21:15:16.923Z,48.18
2023-05-09T21:17:44.739Z,48.01
2023-05-09T21:20:12.812Z,48.16
2023-05-09T21:22:40.665Z,47.96
2023-05-09T21:25:09.015Z,48.16
2023-05-09T21:27:36.621Z,48.19
2023-05-09T21:30:04.982Z,48.16
2023-05-09T21:32:32.589Z,48.25
2023-05-09T21:35:01.432Z,48.43
2023-05-09T21:37:29.201Z,48.25
2023-05-09T21:39:57.216Z,48.25
2023-05-09T21:42:24.953Z,48.31
2023-05-09T21:44:52.614Z,48.59
2023-05-09T21:47:20.600Z,48.48
2023-05-09T21:49:48.352Z,48.59
2023-05-09T21:52:16.496Z,48.77
2023-05-09T21:54:44.304Z,48.54
2023-05-09T21:57:11.899Z,48.84
2023-05-09T21:59:39.508Z,48.80
2023-05-09T22:02:07.186Z,48.48
2023-05-09T22:04:34.889Z,49.11
2023-05-09T22:07:02.542Z,48.99
2023-05-09T22:09:30.450Z,49.11
2023-05-09T22:11:58.103Z,49.14
2023-05-09T22:14:25.806Z,49.16
2023-05-09T22:16:53.530Z,49.20
2023-05-09T22:19:21.301Z,49.49
2023-05-09T22:21:49.079Z,49.32
2023-05-09T22:24:16.723Z,49.41
2023-05-09T22:26:44.321Z,49.71
2023-05-09T22:29:12.034Z,49.75
2023-05-09T22:31:39.673Z,49.92
2023-05-09T22:34:07.359Z,49.98
2023-05-09T22:36:35.049Z,49.91
2023-05-09T22:39:03.206Z,50.12
2023-05-09T22:41:30.786Z,50.20
2023-05-09T22:43:58.413Z,50.22
2023-05-09T22:46:26.109Z,50.20
2023-05-09T22:48:53.714Z,50.52
2023-05-09T22:51:21.420Z,50.66
2023-05-09T22:53:49.025Z,50.63
2023-05-09T22:56:16.740Z,50.77
2023-05-09T22:58:44.374Z,50.91
2023-05-09T23:01:11.999Z,51.15
2023-05-09T23:03:39.671Z,50.86
2023-05-09T23:06:07.514Z,51.32
2023-05-09T23:08:35.263Z,51.44
2023-05-09T23:11:02.930Z,51.38
2023-05-09T23:13:30.661Z,51.38
2023-05-09T23:15:58.354Z,51.91
2023-05-09T23:18:28.041Z,51.53
2023-05-09T23:20:55.671Z,51.73
2023-05-09T23:23:23.618Z,51.66
2023-05-09T23:25:51.204Z,51.90
2023-05-09T23:28:20.431Z,51.76
2023-05-09T23:30:48.060Z,51.76
2023-05-09T23:33:16.265Z,51.96
2023-05-09T23:35:43.875Z,52.14
2023-05-09T23:38:11.624Z,52.09
2023-05-09T23:40:39.793Z,52.07
2023-05-09T23:43:07.420Z,52.41
2023-05-09T23:45:35.104Z,52.53
2023-05-09T23:48:02.926Z,52.61
2023-05-09T23:50:30.629Z,52.69
2023-05-09T23:52:58.256Z,52.65
2023-05-09T23:55:25.854Z,52.81
2023-05-09T23:57:53.451Z,52.72
